Time;durP1;ratioP1;P1;durP2;ratioP2;P2;SDS_P1;SDS_P2;PMS_P1;PMS_P2;Temp;Humidity;BMP_temperature;BMP_pressure;BME280_temperature;BME280_humidity;BME280_pressure;Samples;Min_cycle;Max_cycle;Signal;HPM_P1;HPM_P2
2023/02/07 00:02:15;;;;;;;11.65;8.02;;;0.10;1.00;;;;;;7360820;19;20089;-75
2023/02/07 00:04:45;;;;;;;11.35;7.78;;;0.00;1.00;;;;;;7363142;19;20112;-77
2023/02/07 00:07:17;;;;;;;10.43;7.53;;;0.00;1.00;;;;;;7360991;19;20006;-76
2023/02/07 00:09:47;;;;;;;10.98;7.25;;;-0.10;1.00;;;;;;7360371;19;20015;-76
2023/02/07 00:12:17;;;;;;;12.05;8.13;;;-0.10;1.00;;;;;;7381336;19;20036;-76
2023/02/07 00:14:47;;;;;;;10.45;7.45;;;-0.20;1.00;;;;;;7364910;19;20014;-76
2023/02/07 00:17:17;;;;;;;10.38;7.22;;;-0.20;1.00;;;;;;7359721;19;20022;-75
2023/02/07 00:19:47;;;;;;;12.32;8.77;;;-0.30;1.00;;;;;;7361211;19;20537;-76
2023/02/07 00:22:20;;;;;;;12.35;8.13;;;-0.30;1.00;;;;;;7360395;19;20090;-77
2023/02/07 00:24:49;;;;;;;15.65;8.85;;;-0.30;1.00;;;;;;7360380;19;20166;-76
2023/02/07 00:27:19;;;;;;;12.55;9.07;;;-0.40;1.00;;;;;;7373223;19;20121;-76
2023/02/07 00:29:49;;;;;;;15.73;10.55;;;-0.40;1.00;;;;;;7384103;19;20019;-76
2023/02/07 00:32:19;;;;;;;16.83;10.82;;;-0.40;1.00;;;;;;7360250;19;20502;-76
2023/02/07 00:34:49;;;;;;;19.42;10.57;;;-0.50;1.00;;;;;;7358998;19;20492;-76
2023/02/07 00:37:22;;;;;;;16.60;10.60;;;-0.50;1.00;;;;;;7359865;19;20019;-76
2023/02/07 00:39:52;;;;;;;18.40;10.45;;;-0.50;1.00;;;;;;7361350;19;20022;-76
2023/02/07 00:42:21;;;;;;;18.55;11.38;;;-0.60;1.00;;;;;;7359582;19;20448;-76
2023/02/07 00:44:51;;;;;;;17.08;11.13;;;-0.60;1.00;;;;;;7381633;19;20015;-75
2023/02/07 00:47:21;;;;;;;16.25;10.23;;;-0.60;1.00;;;;;;7358362;19;20022;-75
2023/02/07 00:49:51;;;;;;;15.95;11.07;;;-0.70;1.00;;;;;;7359377;19;20007;-75
2023/02/07 00:52:23;;;;;;;18.13;11.60;;;-0.70;1.00;;;;;;7361505;19;20029;-75
2023/02/07 00:54:53;;;;;;;17.40;11.50;;;-0.70;1.00;;;;;;7362819;19;20129;-76
2023/02/07 00:57:23;;;;;;;18.48;11.60;;;-0.80;1.30;;;;;;7359068;19;20018;-76
2023/02/07 00:59:53;;;;;;;20.38;11.82;;;-0.80;1.60;;;;;;7382617;19;20022;-76
2023/02/07 01:02:22;;;;;;;19.40;12.45;;;-0.80;1.60;;;;;;7358887;19;20018;-75
2023/02/07 01:04:52;;;;;;;18.25;11.90;;;-0.80;1.30;;;;;;7361808;19;20014;-75
2023/02/07 01:07:25;;;;;;;21.45;12.90;;;-0.90;1.00;;;;;;7358824;19;20022;-76
2023/02/07 01:09:54;;;;;;;20.30;12.13;;;-0.90;1.00;;;;;;7360978;19;20011;-75
2023/02/07 01:12:24;;;;;;;25.92;14.68;;;-0.90;1.00;;;;;;7358811;19;20482;-76
2023/02/07 01:14:54;;;;;;;25.77;14.98;;;-0.90;1.00;;;;;;7384955;19;20014;-75
2023/02/07 01:17:24;;;;;;;26.88;15.00;;;-1.00;1.00;;;;;;7358622;19;20011;-76
2023/02/07 01:19:59;;;;;;;27.92;14.60;;;-1.00;1.00;;;;;;7358432;19;20006;-75
2023/02/07 01:22:31;;;;;;;23.00;13.43;;;-0.90;1.00;;;;;;7363654;19;20011;-75
2023/02/07 01:25:01;;;;;;;19.95;11.85;;;-0.90;1.00;;;;;;7366206;19;20014;-75
2023/02/07 01:27:31;;;;;;;18.50;12.15;;;-0.90;1.00;;;;;;7365620;19;20025;-75
2023/02/07 01:30:01;;;;;;;17.83;11.57;;;-0.90;1.00;;;;;;7389382;19;20125;-75
2023/02/07 01:32:34;;;;;;;19.35;13.07;;;-0.90;1.00;;;;;;7365463;19;20011;-76
2023/02/07 01:35:04;;;;;;;19.92;12.70;;;-0.90;1.00;;;;;;7365726;19;20015;-76
2023/02/07 01:37:36;;;;;;;24.45;13.45;;;-0.90;1.50;;;;;;7366156;19;20081;-76
2023/02/07 01:40:07;;;;;;;23.48;14.02;;;-1.10;1.50;;;;;;7367257;19;20478;-76
2023/02/07 01:42:36;;;;;;;20.45;13.57;;;-1.00;1.90;;;;;;7365020;19;20608;-76
2023/02/07 01:45:17;;;;;;;21.90;14.13;;;-1.00;2.00;;;;;;7387232;19;20498;-75
2023/02/07 01:47:47;;;;;;;23.75;14.10;;;-1.10;1.00;;;;;;7364342;19;20013;-75
2023/02/07 01:50:17;;;;;;;21.20;13.85;;;-1.10;1.00;;;;;;7364842;19;20015;-75
2023/02/07 01:52:50;;;;;;;21.48;14.23;;;-1.10;1.00;;;;;;7366369;19;20387;-75
2023/02/07 01:55:26;;;;;;;23.13;13.60;;;-1.10;1.00;;;;;;7364755;19;20022;-75
2023/02/07 01:57:56;;;;;;;20.77;13.73;;;-1.20;1.00;;;;;;7365648;19;20129;-76
2023/02/07 02:00:26;;;;;;;19.83;11.98;;;-1.20;1.00;;;;;;7363358;19;20043;-76
2023/02/07 02:02:56;;;;;;;21.00;12.57;;;-1.20;1.00;;;;;;7386065;19;20447;-75
2023/02/07 02:05:27;;;;;;;20.63;13.82;;;-1.20;1.00;;;;;;7368437;19;20015;-75
2023/02/07 02:08:00;;;;;;;20.52;14.18;;;-1.20;1.00;;;;;;7364934;19;20070;-75
2023/02/07 02:10:49;;;;;;;22.10;13.02;;;-1.30;1.00;;;;;;7364402;19;20145;-75
2023/02/07 02:13:29;;;;;;;20.35;13.25;;;-1.30;1.00;;;;;;7366063;19;20019;-77
2023/02/07 02:16:07;;;;;;;22.48;13.15;;;-1.30;1.00;;;;;;7364962;19;20014;-77
2023/02/07 02:18:50;;;;;;;21.17;13.75;;;-1.30;1.00;;;;;;7364500;19;20470;-77
2023/02/07 02:22:00;;;;;;;23.02;14.60;;;-1.30;1.00;;;;;;7383215;19;20014;-77
2023/02/07 02:24:58;;;;;;;22.70;13.68;;;-1.40;1.00;;;;;;7364809;19;20015;-76
2023/02/07 02:27:40;;;;;;;22.33;14.60;;;-1.40;1.00;;;;;;7363379;19;20018;-77
2023/02/07 02:30:37;;;;;;;21.83;14.23;;;-1.40;1.00;;;;;;7387245;19;20018;-77
2023/02/07 02:33:29;;;;;;;21.13;14.25;;;-1.40;1.00;;;;;;7360701;19;20021;-77
2023/02/07 02:36:09;;;;;;;21.00;14.25;;;-1.40;1.00;;;;;;7364004;19;20796;-76
2023/02/07 02:38:46;;;;;;;24.20;14.93;;;-1.40;1.00;;;;;;7364698;19;20014;-77
2023/02/07 02:41:21;;;;;;;25.10;15.38;;;-1.40;1.00;;;;;;7366173;19;20428;-77
2023/02/07 02:43:56;;;;;;;23.55;15.68;;;-1.40;1.00;;;;;;7365356;19;20478;-76
2023/02/07 02:46:29;;;;;;;24.27;15.32;;;-1.40;1.00;;;;;;7364555;19;20011;-77
2023/02/07 02:49:03;;;;;;;23.33;14.70;;;-1.40;1.00;;;;;;7362224;19;20474;-78
2023/02/07 02:51:34;;;;;;;23.95;15.93;;;-1.50;1.00;;;;;;7366402;19;20022;-77
2023/02/07 02:54:04;;;;;;;22.00;14.88;;;-1.50;1.00;;;;;;7386833;19;20018;-76
2023/02/07 02:56:49;;;;;;;25.13;17.02;;;-1.50;1.00;;;;;;7366091;19;20021;-76
2023/02/07 02:59:35;;;;;;;23.00;15.65;;;-1.50;1.00;;;;;;7364165;19;20015;-76
2023/02/07 03:02:22;;;;;;;24.77;16.27;;;-1.50;1.00;;;;;;7363372;19;20014;-76
2023/02/07 03:05:17;;;;;;;26.02;16.73;;;-1.60;1.00;;;;;;7366309;19;20019;-75
2023/02/07 03:08:00;;;;;;;26.35;16.02;;;-1.60;1.00;;;;;;7362235;19;20014;-75
2023/02/07 03:10:39;;;;;;;27.85;18.83;;;-1.70;1.00;;;;;;7362130;19;20018;-74
2023/02/07 03:13:17;;;;;;;28.08;17.73;;;-1.70;1.00;;;;;;7363891;19;20011;-76
2023/02/07 03:15:57;;;;;;;26.63;16.55;;;-1.70;1.00;;;;;;7362646;19;20017;-76
2023/02/07 03:18:30;;;;;;;25.33;16.98;;;-1.70;1.00;;;;;;7362745;19;20014;-76
2023/02/07 03:21:08;;;;;;;25.05;17.45;;;-1.70;1.00;;;;;;7386108;19;20026;-76
2023/02/07 03:23:39;;;;;;;24.45;16.88;;;-1.70;1.00;;;;;;7362009;19;20018;-76
2023/02/07 03:26:11;;;;;;;25.75;16.95;;;-1.70;1.00;;;;;;7362262;19;20010;-77
2023/02/07 03:28:42;;;;;;;26.63;17.20;;;-1.70;1.00;;;;;;7363430;19;20022;-76
2023/02/07 03:31:17;;;;;;;26.38;17.48;;;-1.70;1.00;;;;;;7363025;19;20014;-76
2023/02/07 03:33:48;;;;;;;;;;;-1.80;1.00;;;;;;7363588;19;20121;-76
2023/02/07 03:36:25;;;;;;;22.92;15.73;;;-1.80;1.00;;;;;;7383969;19;20335;-76
2023/02/07 03:38:55;;;;;;;25.50;16.67;;;-1.80;1.00;;;;;;7361354;19;20354;-76
2023/02/07 03:41:31;;;;;;;24.42;16.63;;;-1.90;1.00;;;;;;7364020;19;20006;-77
2023/02/07 03:44:05;;;;;;;24.05;16.48;;;-1.90;1.00;;;;;;7361620;19;20501;-77
2023/02/07 03:46:38;;;;;;;25.75;17.52;;;-1.90;1.00;;;;;;7361833;19;20011;-76
2023/02/07 03:49:10;;;;;;;25.65;16.45;;;-1.90;1.00;;;;;;7360350;19;20023;-76
2023/02/07 03:51:42;;;;;;;25.73;16.65;;;-1.90;1.00;;;;;;7363827;19;19995;-76
2023/02/07 03:54:12;;;;;;;29.60;17.05;;;-1.90;1.00;;;;;;7382864;19;20015;-77
2023/02/07 03:56:42;;;;;;;24.08;15.77;;;-2.00;1.00;;;;;;7361036;19;20014;-77
2023/02/07 03:59:12;;;;;;;25.50;16.55;;;-1.90;1.00;;;;;;7362578;19;20010;-77
2023/02/07 04:01:42;;;;;;;23.15;16.08;;;-2.00;1.00;;;;;;7360570;19;20011;-76
2023/02/07 04:04:13;;;;;;;26.92;16.75;;;-2.00;1.00;;;;;;7363412;19;20010;-77
2023/02/07 04:06:45;;;;;;;24.60;15.65;;;-2.00;1.00;;;;;;7361508;19;20020;-76
2023/02/07 04:09:15;;;;;;;24.23;15.73;;;-2.00;1.00;;;;;;7383766;19;20015;-77
2023/02/07 04:11:45;;;;;;;27.52;16.77;;;-2.00;1.00;;;;;;7363932;19;20376;-76
2023/02/07 04:14:14;;;;;;;23.27;15.90;;;-2.10;1.00;;;;;;7363955;19;20065;-77
2023/02/07 04:16:44;;;;;;;24.83;16.25;;;-2.10;1.00;;;;;;7361050;19;20022;-77
2023/02/07 04:19:14;;;;;;;24.33;15.40;;;-2.10;1.00;;;;;;7360560;19;20015;-77
2023/02/07 04:21:46;;;;;;;22.75;16.83;;;-2.30;1.00;;;;;;7363038;19;20015;-78
2023/02/07 04:24:16;;;;;;;25.48;16.50;;;-2.30;1.00;;;;;;7382705;19;20010;-77
2023/02/07 04:26:46;;;;;;;21.73;15.10;;;-2.40;1.00;;;;;;7360157;19;20010;-77
2023/02/07 04:29:16;;;;;;;26.67;17.23;;;-2.40;1.00;;;;;;7362036;19;20015;-77
2023/02/07 04:31:46;;;;;;;27.45;18.00;;;-2.40;1.00;;;;;;7360218;19;20010;-77
2023/02/07 04:34:16;;;;;;;27.45;17.35;;;-2.40;1.00;;;;;;7360496;19;20088;-77
2023/02/07 04:36:48;;;;;;;27.45;17.95;;;-2.40;1.00;;;;;;7361406;19;20992;-77
2023/02/07 04:39:18;;;;;;;28.77;17.10;;;-2.40;1.00;;;;;;7382711;19;20022;-77
2023/02/07 04:41:48;;;;;;;25.45;17.55;;;-2.40;1.00;;;;;;7362750;19;20021;-77
2023/02/07 04:44:18;;;;;;;35.35;19.83;;;-2.40;1.00;;;;;;7359863;19;20007;-78
2023/02/07 04:46:48;;;;;;;29.52;18.08;;;-2.40;1.00;;;;;;7358987;19;20623;-77
2023/02/07 04:49:18;;;;;;;26.83;18.23;;;-2.40;1.00;;;;;;7359332;19;20015;-76
2023/02/07 04:51:50;;;;;;;30.38;18.52;;;-2.40;1.00;;;;;;7361418;19;20017;-76
2023/02/07 04:54:20;;;;;;;29.83;18.05;;;-2.40;1.00;;;;;;7373572;19;20022;-76
2023/02/07 04:56:50;;;;;;;27.42;17.83;;;-2.40;1.00;;;;;;7387146;19;20014;-77
2023/02/07 04:59:19;;;;;;;28.25;18.13;;;-2.30;1.00;;;;;;7365867;19;20014;-77
2023/02/07 05:01:49;;;;;;;27.27;18.13;;;-2.40;1.00;;;;;;7366866;19;20498;-77
2023/02/07 05:04:19;;;;;;;28.30;17.83;;;-2.30;1.00;;;;;;7368930;19;20455;-77
2023/02/07 05:06:52;;;;;;;26.33;16.90;;;-2.40;1.00;;;;;;7367031;19;20014;-77
2023/02/07 05:09:22;;;;;;;27.65;17.90;;;-2.30;1.00;;;;;;7367361;19;20014;-74
2023/02/07 05:11:52;;;;;;;27.65;17.02;;;-2.40;1.00;;;;;;7387659;19;20495;-75
2023/02/07 05:14:21;;;;;;;28.23;17.45;;;-2.40;1.00;;;;;;7370050;19;20014;-77
2023/02/07 05:16:51;;;;;;;28.40;17.73;;;-2.30;1.00;;;;;;7366184;19;20042;-78
2023/02/07 05:19:21;;;;;;;27.30;18.15;;;-2.40;1.00;;;;;;7366157;19;20090;-76
2023/02/07 05:21:53;;;;;;;25.92;16.33;;;-2.40;1.00;;;;;;7368063;19;20012;-77
2023/02/07 05:24:23;;;;;;;25.95;16.88;;;-2.30;1.00;;;;;;7366189;19;20104;-76
2023/02/07 05:26:53;;;;;;;26.17;16.48;;;-2.30;1.00;;;;;;7387835;19;20014;-77
2023/02/07 05:29:23;;;;;;;27.55;16.77;;;-2.40;1.00;;;;;;7366818;19;20106;-77
2023/02/07 05:34:36;;;;;;;26.73;16.30;;;-2.40;1.00;;;;;;7368032;19;20090;-76
2023/02/07 05:37:08;;;;;;;24.70;15.93;;;-2.40;1.00;;;;;;7366476;19;20015;-76
2023/02/07 05:39:38;;;;;;;27.55;16.63;;;-2.50;1.00;;;;;;7366671;19;20018;-77
2023/02/07 05:42:08;;;;;;;30.15;17.10;;;-2.40;1.00;;;;;;7390539;19;20025;-77
2023/02/07 05:44:37;;;;;;;23.13;15.68;;;-2.40;1.00;;;;;;7364486;19;20010;-77
2023/02/07 05:47:07;;;;;;;25.58;15.85;;;-2.40;1.00;;;;;;7365653;19;20006;-77
2023/02/07 05:49:38;;;;;;;24.90;15.98;;;-2.50;1.00;;;;;;7364762;19;20014;-77
2023/02/07 05:52:11;;;;;;;26.85;15.30;;;-2.40;1.00;;;;;;7363891;19;20011;-78
2023/02/07 05:54:40;;;;;;;23.95;15.52;;;-2.50;1.00;;;;;;7365559;19;20369;-78
2023/02/07 05:57:10;;;;;;;46.60;27.83;;;-2.40;1.00;;;;;;7387276;19;20017;-77
2023/02/07 05:59:40;;;;;;;27.00;16.63;;;-2.50;1.00;;;;;;7365504;19;20364;-76
2023/02/07 06:02:10;;;;;;;29.48;18.95;;;-2.50;1.00;;;;;;7367494;19;20014;-78
2023/02/07 06:04:40;;;;;;;38.63;25.05;;;-2.50;1.00;;;;;;7366959;19;20018;-79
2023/02/07 06:07:12;;;;;;;26.88;16.50;;;-2.60;1.00;;;;;;7364703;19;20376;-77
2023/02/07 06:09:42;;;;;;;31.40;19.92;;;-2.60;1.00;;;;;;7367499;19;20015;-76
2023/02/07 06:12:12;;;;;;;34.58;20.27;;;-2.70;1.00;;;;;;7386815;19;20014;-77
2023/02/07 06:14:42;;;;;;;27.38;17.95;;;-2.80;1.00;;;;;;7368138;19;20017;-77
2023/02/07 06:17:14;;;;;;;23.08;15.30;;;-2.80;1.00;;;;;;7363413;19;20041;-75
2023/02/07 06:19:44;;;;;;;24.75;15.35;;;-2.80;1.00;;;;;;7364018;19;20015;-77
2023/02/07 06:22:17;;;;;;;23.50;14.50;;;-2.70;1.00;;;;;;7365031;19;20011;-76
2023/02/07 06:24:47;;;;;;;25.70;15.15;;;-2.60;1.00;;;;;;7364286;19;20082;-77
2023/02/07 06:27:16;;;;;;;23.95;15.30;;;-2.60;1.00;;;;;;7385456;19;20084;-77
2023/02/07 06:29:46;;;;;;;22.85;15.10;;;-2.70;1.00;;;;;;7361901;19;20633;-77
2023/02/07 06:32:16;;;;;;;28.20;16.85;;;-2.60;1.00;;;;;;7366823;19;20471;-77
2023/02/07 06:34:46;;;;;;;26.83;14.80;;;-2.70;1.00;;;;;;7363160;19;20018;-77
2023/02/07 06:37:18;;;;;;;33.15;18.17;;;-2.60;1.00;;;;;;7362898;19;20010;-77
2023/02/07 06:39:48;;;;;;;26.50;16.90;;;-2.70;1.00;;;;;;7364728;19;20030;-77
2023/02/07 06:42:18;;;;;;;28.65;17.20;;;-2.70;1.00;;;;;;7387656;19;20022;-76
2023/02/07 06:44:48;;;;;;;22.90;16.08;;;-2.70;1.00;;;;;;7362757;19;20011;-77
2023/02/07 06:47:19;;;;;;;24.65;15.15;;;-2.80;1.00;;;;;;7362568;19;20026;-77
2023/02/07 06:49:49;;;;;;;22.58;14.52;;;-2.70;1.00;;;;;;7362115;19;20014;-78
2023/02/07 06:52:22;;;;;;;23.20;14.15;;;-2.70;1.00;;;;;;7361735;19;20017;-76
2023/02/07 06:54:51;;;;;;;26.92;15.57;;;-2.70;1.00;;;;;;7363247;19;20485;-76
2023/02/07 06:57:21;;;;;;;21.65;15.13;;;-2.70;1.00;;;;;;7361888;19;20082;-77
2023/02/07 06:59:51;;;;;;;22.80;15.10;;;-2.70;1.00;;;;;;7386685;19;20819;-78
2023/02/07 07:02:21;;;;;;;24.60;17.50;;;-2.60;1.00;;;;;;7366616;19;20014;-77
2023/02/07 07:04:51;;;;;;;25.10;15.07;;;-2.60;1.00;;;;;;7364976;19;20011;-76
2023/02/07 07:07:23;;;;;;;23.23;15.32;;;-2.60;1.00;;;;;;7364095;19;20049;-74
2023/02/07 07:09:53;;;;;;;21.48;14.07;;;-2.70;1.00;;;;;;7365036;19;20022;-76
2023/02/07 07:12:23;;;;;;;22.70;14.55;;;-2.70;1.00;;;;;;7363893;19;20021;-75
2023/02/07 07:14:53;;;;;;;22.98;14.85;;;-2.70;1.00;;;;;;7387429;19;20015;-77
2023/02/07 07:17:23;;;;;;;23.50;14.30;;;-2.70;1.00;;;;;;7361307;19;20010;-77
2023/02/07 07:19:53;;;;;;;26.20;14.45;;;-2.70;1.00;;;;;;7359630;19;20021;-76
2023/02/07 07:22:25;;;;;;;25.98;16.92;;;-2.70;1.00;;;;;;7363151;19;20119;-77
2023/02/07 07:24:55;;;;;;;27.10;15.88;;;-2.70;1.00;;;;;;7361956;19;20022;-77
2023/02/07 07:27:25;;;;;;;24.00;14.93;;;-2.60;1.00;;;;;;7363558;19;20022;-79
2023/02/07 07:29:55;;;;;;;24.75;15.68;;;-2.60;1.00;;;;;;7385603;19;20010;-77
2023/02/07 07:32:25;;;;;;;25.55;15.77;;;-2.60;1.00;;;;;;7362902;19;20494;-76
2023/02/07 07:35:03;;;;;;;27.20;15.48;;;-2.60;1.00;;;;;;7361515;19;20032;-77
2023/02/07 07:37:35;;;;;;;27.23;14.45;;;-2.70;1.00;;;;;;7361173;19;20018;-77
2023/02/07 07:40:06;;;;;;;25.40;14.80;;;-2.50;1.00;;;;;;7363502;19;20625;-77
2023/02/07 07:42:35;;;;;;;23.02;14.82;;;-2.60;1.00;;;;;;7363765;19;20084;-77
2023/02/07 07:45:06;;;;;;;24.08;15.50;;;-2.50;1.00;;;;;;7382056;19;20108;-77
2023/02/07 07:47:36;;;;;;;24.75;15.15;;;-2.60;1.00;;;;;;7360624;19;21162;-77
2023/02/07 07:50:06;;;;;;;21.23;15.43;;;-2.50;1.00;;;;;;7359726;19;20014;-77
2023/02/07 07:52:39;;;;;;;23.48;15.15;;;-2.50;1.00;;;;;;7361166;19;20021;-78
2023/02/07 07:55:10;;;;;;;23.42;15.20;;;-2.50;1.00;;;;;;7360933;19;20014;-79
2023/02/07 07:57:39;;;;;;;21.92;14.73;;;-2.50;1.00;;;;;;7360557;19;20030;-77
2023/02/07 08:00:11;;;;;;;20.58;12.95;;;-2.40;1.00;;;;;;7387255;19;20031;-76
2023/02/07 08:02:41;;;;;;;19.52;13.35;;;-2.40;1.00;;;;;;7365467;19;20390;-75
2023/02/07 08:05:11;;;;;;;24.25;15.05;;;-2.40;1.00;;;;;;7364040;19;20237;-77
2023/02/07 08:07:45;;;;;;;22.85;15.15;;;-2.30;1.00;;;;;;7360342;19;20017;-77
2023/02/07 08:10:15;;;;;;;23.25;13.93;;;-2.30;1.00;;;;;;7359720;19;20490;-77
2023/02/07 08:12:45;;;;;;;21.52;13.75;;;-2.30;1.00;;;;;;7362096;19;20014;-76
2023/02/07 08:15:14;;;;;;;23.30;14.45;;;-2.30;1.00;;;;;;7382676;19;20017;-77
2023/02/07 08:17:44;;;;;;;21.42;13.38;;;-2.30;1.00;;;;;;7359846;19;20430;-77
2023/02/07 08:20:14;;;;;;;25.48;14.75;;;-2.20;1.00;;;;;;7356679;19;20368;-77
2023/02/07 08:22:47;;;;;;;23.05;14.70;;;-2.10;1.00;;;;;;7362358;19;20105;-77
2023/02/07 08:25:17;;;;;;;22.80;14.90;;;-2.20;1.00;;;;;;7362379;19;20018;-76
2023/02/07 08:27:47;;;;;;;20.50;13.27;;;-2.10;1.00;;;;;;7359758;19;20025;-77
2023/02/07 08:30:18;;;;;;;22.05;13.50;;;-2.10;1.00;;;;;;7379181;19;20039;-76
2023/02/07 08:32:50;;;;;;;24.52;13.85;;;-2.00;1.00;;;;;;7358370;19;20042;-77
2023/02/07 08:35:20;;;;;;;20.45;12.48;;;-2.00;1.00;;;;;;7358416;19;20043;-77
2023/02/07 08:37:52;;;;;;;20.33;12.32;;;-2.00;1.00;;;;;;7358846;19;20014;-77
2023/02/07 08:40:23;;;;;;;22.90;14.48;;;-1.90;1.00;;;;;;7358939;19;20007;-78
2023/02/07 08:42:53;;;;;;;22.65;14.18;;;-1.80;1.00;;;;;;7361254;19;20021;-77
2023/02/07 08:45:22;;;;;;;22.45;13.65;;;-1.80;1.00;;;;;;7359512;19;20015;-78
2023/02/07 08:47:52;;;;;;;20.38;13.20;;;-1.80;1.00;;;;;;7379927;19;20006;-77
2023/02/07 08:50:22;;;;;;;20.20;12.13;;;-1.70;1.00;;;;;;7356842;19;20562;-78
2023/02/07 08:52:55;;;;;;;16.50;11.80;;;-1.70;1.00;;;;;;7358709;19;20010;-77
2023/02/07 08:55:24;;;;;;;17.85;12.13;;;-1.40;1.00;;;;;;7360065;19;20106;-77
2023/02/07 08:57:54;;;;;;;20.65;12.52;;;-1.30;1.00;;;;;;7358705;19;20677;-76
2023/02/07 09:00:24;;;;;;;18.70;11.45;;;-1.30;1.00;;;;;;7357067;19;20015;-75
2023/02/07 09:02:55;;;;;;;18.13;11.60;;;-1.30;1.00;;;;;;7383520;19;20019;-77
2023/02/07 09:05:24;;;;;;;17.10;11.07;;;-1.30;1.00;;;;;;7361849;19;20090;-76
2023/02/07 09:07:57;;;;;;;20.40;12.80;;;-1.30;1.00;;;;;;7358434;19;20597;-77
2023/02/07 09:10:27;;;;;;;18.67;12.43;;;-1.20;1.00;;;;;;7356903;19;20463;-77
2023/02/07 09:12:57;;;;;;;19.80;12.05;;;-1.00;1.00;;;;;;7360658;19;20006;-77
2023/02/07 09:15:26;;;;;;;21.15;12.52;;;-1.10;1.00;;;;;;7358393;19;20551;-77
2023/02/07 09:17:56;;;;;;;17.75;11.60;;;-1.00;1.00;;;;;;7378431;19;20344;-76
2023/02/07 09:20:26;;;;;;;17.10;12.23;;;-1.10;1.00;;;;;;7358763;19;20018;-76
2023/02/07 09:25:41;;;;;;;18.50;12.20;;;-0.90;1.00;;;;;;7358986;19;20006;-76
2023/02/07 09:28:12;;;;;;;19.83;12.20;;;-0.70;1.00;;;;;;7358092;19;20036;-77
2023/02/07 09:30:43;;;;;;;19.67;12.23;;;-0.80;1.00;;;;;;7357028;19;20007;-76
2023/02/07 09:33:14;;;;;;;19.95;11.95;;;-0.70;1.00;;;;;;7381733;19;20011;-75
2023/02/07 09:35:47;;;;;;;18.70;11.00;;;-0.70;1.00;;;;;;7357957;19;20010;-76
2023/02/07 09:38:22;;;;;;;18.38;11.50;;;-0.60;1.00;;;;;;7358464;19;20027;-77
2023/02/07 09:40:53;;;;;;;22.10;12.77;;;-0.60;1.00;;;;;;7358485;19;20011;-76
2023/02/07 09:43:34;;;;;;;19.38;11.93;;;-0.50;1.00;;;;;;7363200;19;20391;-77
2023/02/07 09:46:22;;;;;;;19.40;12.75;;;-0.30;1.00;;;;;;7365221;19;20016;-76
2023/02/07 09:48:57;;;;;;;21.55;13.25;;;-0.40;1.00;;;;;;7364647;19;20018;-77
2023/02/07 09:51:28;;;;;;;18.05;11.70;;;-0.30;1.00;;;;;;7366259;19;20372;-76
2023/02/07 09:54:04;;;;;;;19.52;12.07;;;-0.40;1.00;;;;;;7386215;19;20015;-77
2023/02/07 09:56:36;;;;;;;17.48;11.57;;;-0.30;1.00;;;;;;7364128;19;20010;-77
2023/02/07 09:59:17;;;;;;;17.42;11.25;;;-0.20;1.00;;;;;;7365649;19;20394;-76
2023/02/07 10:01:51;;;;;;;15.98;10.75;;;-0.10;1.00;;;;;;7364966;19;20486;-76
2023/02/07 10:04:39;;;;;;;16.63;10.27;;;-0.20;1.00;;;;;;7365460;19;20014;-77
2023/02/07 10:07:16;;;;;;;17.90;10.85;;;-0.10;1.00;;;;;;7365046;19;20240;-77
2023/02/07 10:09:49;;;;;;;20.95;11.57;;;0.10;1.00;;;;;;7365957;19;20045;-77
2023/02/07 10:12:34;;;;;;;17.67;11.75;;;0.10;1.00;;;;;;7387141;19;20014;-76
2023/02/07 10:15:29;;;;;;;16.08;11.02;;;0.20;1.00;;;;;;7367396;19;20010;-77
2023/02/07 10:18:19;;;;;;;20.20;11.82;;;0.20;1.00;;;;;;7364584;19;20108;-77
2023/02/07 10:20:58;;;;;;;17.48;11.45;;;0.20;1.00;;;;;;7363198;19;20011;-77
2023/02/07 10:23:39;;;;;;;16.38;10.23;;;0.40;1.00;;;;;;7367899;19;20015;-77
2023/02/07 10:26:24;;;;;;;16.98;11.15;;;0.30;1.00;;;;;;7363444;19;20035;-77
2023/02/07 10:29:10;;;;;;;32.22;11.38;;;0.30;1.00;;;;;;7364758;19;20558;-77
2023/02/07 10:31:44;;;;;;;22.63;11.68;;;0.50;1.00;;;;;;7363033;19;20026;-76
2023/02/07 10:34:15;;;;;;;;;;;0.60;1.00;;;;;;7363343;19;20114;-76
2023/02/07 10:36:48;;;;;;;17.67;11.50;;;0.70;1.00;;;;;;7364104;19;19929;-76
2023/02/07 10:39:25;;;;;;;15.90;11.07;;;0.70;1.00;;;;;;7386424;19;20107;-77
2023/02/07 10:41:58;;;;;;;16.27;10.70;;;0.60;1.00;;;;;;7364608;19;20018;-76
2023/02/07 10:44:28;;;;;;;24.10;11.13;;;0.50;1.00;;;;;;7362733;19;20023;-77
2023/02/07 10:47:02;;;;;;;18.05;11.45;;;0.60;1.00;;;;;;7363220;19;20037;-77
2023/02/07 10:49:35;;;;;;;16.15;10.02;;;0.70;1.00;;;;;;7362392;19;20015;-76
2023/02/07 10:52:16;;;;;;;16.42;10.98;;;0.80;1.00;;;;;;7363873;19;20802;-76
2023/02/07 10:54:52;;;;;;;17.33;10.70;;;0.80;1.00;;;;;;7359867;19;20022;-76
2023/02/07 10:57:26;;;;;;;17.92;10.93;;;0.80;1.00;;;;;;7362252;19;20372;-77
2023/02/07 11:00:06;;;;;;;17.92;10.88;;;1.00;1.00;;;;;;7386119;19;20044;-72
2023/02/07 11:02:51;;;;;;;18.83;10.95;;;0.80;1.00;;;;;;7363545;19;20498;-74
2023/02/07 11:05:33;;;;;;;21.98;13.10;;;0.80;1.00;;;;;;7366627;19;20477;-71
2023/02/07 11:08:05;;;;;;;18.35;10.88;;;1.10;1.00;;;;;;7363923;19;20451;-70
2023/02/07 11:10:40;;;;;;;18.35;11.05;;;1.10;1.00;;;;;;7362524;19;20395;-71
2023/02/07 11:13:16;;;;;;;19.88;10.60;;;1.10;1.00;;;;;;7365185;19;20101;-76
2023/02/07 11:15:53;;;;;;;15.68;10.55;;;1.10;1.00;;;;;;7361957;19;20011;-71
2023/02/07 11:18:36;;;;;;;17.00;10.48;;;1.20;1.00;;;;;;7362674;19;20086;-74
2023/02/07 11:21:09;;;;;;;17.10;10.55;;;1.30;1.00;;;;;;7383508;19;20022;-72
2023/02/07 11:23:44;;;;;;;18.63;11.00;;;1.30;1.00;;;;;;7364728;19;20018;-70
2023/02/07 11:26:16;;;;;;;18.20;11.00;;;1.40;1.00;;;;;;7361588;19;20622;-72
2023/02/07 11:28:53;;;;;;;14.75;9.93;;;1.60;1.00;;;;;;7362334;19;20022;-73
2023/02/07 11:31:30;;;;;;;16.10;9.85;;;1.50;1.00;;;;;;7361845;19;20017;-71
2023/02/07 11:34:10;;;;;;;32.65;11.52;;;1.70;1.00;;;;;;7363071;19;20022;-68
2023/02/07 11:36:40;;;;;;;17.17;10.85;;;1.70;1.00;;;;;;7362193;19;20021;-67
2023/02/07 11:39:19;;;;;;;14.80;10.10;;;1.80;1.00;;;;;;7384587;19;20397;-66
2023/02/07 11:41:57;;;;;;;18.55;11.10;;;1.90;1.00;;;;;;7361004;19;20794;-66
2023/02/07 11:44:30;;;;;;;20.85;10.32;;;1.90;1.00;;;;;;7360401;19;20469;-66
2023/02/07 11:47:05;;;;;;;16.42;10.27;;;1.80;1.00;;;;;;7361705;19;20480;-67
2023/02/07 11:49:43;;;;;;;19.27;10.50;;;1.70;1.00;;;;;;7361127;19;20014;-68
2023/02/07 11:52:14;;;;;;;16.05;9.75;;;1.70;1.00;;;;;;7362125;19;20010;-68
2023/02/07 11:54:51;;;;;;;16.33;10.23;;;1.80;1.00;;;;;;7359616;19;20010;-69
2023/02/07 11:57:22;;;;;;;19.95;11.75;;;1.80;1.00;;;;;;7361718;19;20031;-67
2023/02/07 12:00:09;;;;;;;17.60;10.00;;;1.90;1.00;;;;;;7384480;19;20043;-68
2023/02/07 12:02:39;;;;;;;24.25;11.35;;;2.00;1.00;;;;;;7361663;19;20075;-67
2023/02/07 12:05:19;;;;;;;14.52;9.68;;;2.10;1.00;;;;;;7362074;19;20084;-68
2023/02/07 12:07:52;;;;;;;16.70;9.40;;;2.00;1.00;;;;;;7361730;19;20064;-68
2023/02/07 12:10:25;;;;;;;17.90;9.93;;;2.00;1.00;;;;;;7358811;19;20037;-70
2023/02/07 12:13:01;;;;;;;17.17;9.95;;;2.20;1.00;;;;;;7360540;19;20513;-68
2023/02/07 12:15:36;;;;;;;16.10;9.95;;;2.40;1.00;;;;;;7358134;19;20019;-69
2023/02/07 12:18:12;;;;;;;16.98;9.45;;;2.40;1.00;;;;;;7382586;19;20618;-67
2023/02/07 12:20:47;;;;;;;23.92;10.20;;;2.20;1.00;;;;;;7357610;19;20466;-69
2023/02/07 12:23:25;;;;;;;14.75;8.77;;;2.40;1.00;;;;;;7362517;19;20029;-69
2023/02/07 12:26:19;;;;;;;15.65;9.30;;;2.30;1.00;;;;;;7359752;19;20021;-69
2023/02/07 12:28:54;;;;;;;16.80;9.45;;;2.30;1.00;;;;;;7361424;19;20025;-69
2023/02/07 12:31:52;;;;;;;14.80;8.43;;;2.30;1.00;;;;;;7359325;19;20029;-68
2023/02/07 12:34:29;;;;;;;11.98;7.95;;;2.30;1.00;;;;;;7361476;19;20018;-69
2023/02/07 12:37:05;;;;;;;15.48;8.43;;;2.40;1.00;;;;;;7360262;19;20143;-69
2023/02/07 12:39:43;;;;;;;15.35;8.68;;;2.60;1.00;;;;;;7361376;19;20025;-69
2023/02/07 12:42:26;;;;;;;16.90;8.30;;;2.70;1.00;;;;;;7380996;19;20014;-70
2023/02/07 12:44:59;;;;;;;16.70;8.70;;;2.80;1.00;;;;;;7359047;19;20501;-69
2023/02/07 12:47:45;;;;;;;12.35;7.90;;;2.70;1.00;;;;;;7358955;19;20677;-71
2023/02/07 12:50:29;;;;;;;12.93;8.13;;;2.70;1.00;;;;;;7357028;19;20850;-69
2023/02/07 12:53:11;;;;;;;12.23;7.70;;;2.70;1.00;;;;;;7357006;19;20018;-70
2023/02/07 12:55:50;;;;;;;17.23;9.60;;;2.70;1.00;;;;;;7358686;19;20010;-68
2023/02/07 12:58:40;;;;;;;12.45;7.75;;;2.90;1.00;;;;;;7356561;19;20007;-69
2023/02/07 13:01:16;;;;;;;13.20;8.40;;;3.00;1.00;;;;;;7356326;19;20042;-71
2023/02/07 13:04:16;;;;;;;13.00;7.28;;;3.10;1.00;;;;;;7361419;19;20010;-69
2023/02/07 13:06:58;;;;;;;14.20;7.43;;;2.90;1.00;;;;;;7358614;19;20076;-70
2023/02/07 13:09:35;;;;;;;13.02;7.53;;;3.00;1.00;;;;;;7357318;19;20014;-71
2023/02/07 13:12:12;;;;;;;11.68;7.25;;;2.90;1.00;;;;;;7376763;19;20021;-71
2023/02/07 13:14:53;;;;;;;10.57;6.15;;;3.10;1.00;;;;;;7362198;19;20043;-69
2023/02/07 13:17:37;;;;;;;12.25;6.53;;;3.10;1.00;;;;;;7356435;19;20014;-70
2023/02/07 13:20:18;;;;;;;9.73;6.18;;;3.00;1.00;;;;;;7360881;19;20018;-70